createdAt,value
2019-05-14T00:00:01.271Z,0.89
2019-05-14T00:15:02.172Z,0.75
2019-05-14T00:30:02.405Z,0.83
2019-05-14T00:45:02.397Z,0.91
2019-05-14T01:00:01.803Z,0.95
2019-05-14T01:15:07.653Z,0.86
2019-05-14T01:30:02.162Z,0.8
2019-05-14T01:45:02.548Z,0.8
2019-05-14T02:00:02.410Z,1.07
2019-05-14T02:15:02.054Z,0.86
2019-05-14T02:30:01.958Z,0.91
2019-05-14T02:45:01.795Z,0.88
2019-05-14T03:00:01.205Z,1.28
2019-05-14T03:15:01.690Z,1.15
2019-05-14T03:30:02.313Z,0.97
2019-05-14T03:45:01.858Z,1.05
2019-05-14T04:00:01.439Z,1.1
2019-05-14T04:15:01.917Z,0.98
2019-05-14T04:30:01.363Z,1.06
2019-05-14T04:45:05.394Z,1.06
2019-05-14T05:00:01.414Z,1.17
2019-05-14T05:15:01.829Z,1
2019-05-14T05:30:01.252Z,0.91
2019-05-14T05:45:01.691Z,0.91
2019-05-14T06:00:02.168Z,1.1
2019-05-14T06:15:01.574Z,1
2019-05-14T06:30:01.975Z,0.96
2019-05-14T06:45:01.385Z,0.96
2019-05-14T07:00:01.805Z,1.15
2019-05-14T07:15:01.234Z,1.22
2019-05-14T07:30:01.664Z,1.23
2019-05-14T07:45:02.132Z,1.34
2019-05-14T08:00:01.489Z,1.24
2019-05-14T08:15:15.092Z,1.34
2019-05-14T08:30:01.784Z,1.1
2019-05-14T08:45:04.674Z,1.1
2019-05-14T09:00:01.672Z,1.15
2019-05-14T09:15:02.159Z,1.43
2019-05-14T09:30:01.645Z,1.18
2019-05-14T09:45:01.236Z,1.17
2019-05-14T10:00:01.704Z,1.06
2019-05-14T10:15:02.450Z,1.14
2019-05-14T10:30:01.903Z,1.01
2019-05-14T10:45:01.337Z,1.07
2019-05-14T11:00:01.788Z,1.59
2019-05-14T11:15:01.255Z,2.14
2019-05-14T11:30:01.888Z,2.35
2019-05-14T11:45:01.325Z,1.87
2019-05-14T12:00:01.684Z,1.53
2019-05-14T12:15:02.140Z,1.41
2019-05-14T12:30:01.550Z,1.51
2019-05-14T12:45:01.974Z,1.6
2019-05-14T13:00:01.391Z,1.51
2019-05-14T13:15:01.821Z,1.44
2019-05-14T13:30:01.404Z,1.96
2019-05-14T13:45:01.839Z,1.57
2019-05-14T14:00:01.242Z,1.47
2019-05-14T14:15:01.657Z,1.48
2019-05-14T14:30:02.062Z,1.44
2019-05-14T14:45:01.515Z,1.55
2019-05-14T15:00:01.886Z,1.64
2019-05-14T15:15:01.320Z,1.33
2019-05-14T15:30:01.708Z,1.28
2019-05-14T15:45:02.128Z,1.26
2019-05-14T16:00:01.534Z,1.53
2019-05-14T16:15:02.063Z,1.28
2019-05-14T16:30:01.532Z,1.2
2019-05-14T16:45:01.938Z,1.32
2019-05-14T17:00:01.359Z,1.26
2019-05-14T17:15:01.889Z,1.45
2019-05-14T17:30:01.278Z,1.3
2019-05-14T17:45:01.716Z,1.08
2019-05-14T18:00:02.145Z,0.98
2019-05-14T18:15:01.570Z,0.94
2019-05-14T18:30:01.963Z,0.87
2019-05-14T18:45:01.371Z,0.82
2019-05-14T19:00:01.860Z,0.89
2019-05-14T19:15:01.649Z,0.97
2019-05-14T19:30:03.192Z,0.92
2019-05-14T19:45:01.692Z,0.92
2019-05-14T20:00:02.085Z,0.92
2019-05-14T20:15:01.511Z,1
2019-05-14T20:30:01.930Z,0.93
2019-05-14T20:45:01.372Z,0.91
2019-05-14T21:00:01.756Z,0.91
2019-05-14T21:15:02.176Z,1.04
2019-05-14T21:30:01.548Z,0.88
2019-05-14T21:45:01.991Z,0.81
2019-05-14T22:00:01.342Z,1.04
2019-05-14T22:15:01.721Z,0.94
2019-05-14T22:30:02.595Z,1.09
2019-05-14T22:45:01.995Z,0.91
2019-05-14T23:00:01.338Z,0.81
2019-05-14T23:15:01.760Z,0.91
2019-05-14T23:30:02.177Z,1.12
2019-05-14T23:45:01.577Z,1.17
